createdAt,value
2022-12-15T00:01:09.293Z,207.40
2022-12-15T00:03:56.523Z,200.20
2022-12-15T00:06:43.656Z,195.57
2022-12-15T00:09:31.192Z,187.18
2022-12-15T00:12:19.707Z,150.75
2022-12-15T00:15:06.627Z,171.40
2022-12-15T00:17:53.344Z,159.48
2022-12-15T00:20:40.579Z,160.52
2022-12-15T00:23:28.641Z,147.63
2022-12-15T00:26:16.378Z,130.98
2022-12-15T00:29:04.253Z,120.30
2022-12-15T00:31:51.166Z,140.10
2022-12-15T00:34:38.012Z,133.32
2022-12-15T00:37:24.979Z,106.68
2022-12-15T00:39:59.481Z,129.15
2022-12-15T00:42:29.598Z,129.65
2022-12-15T00:45:00.543Z,116.22
2022-12-15T00:47:29.183Z,128.35
2022-12-15T00:50:15.859Z,144.73
2022-12-15T00:53:03.409Z,132.05
2022-12-15T00:55:49.924Z,122.35
2022-12-15T00:58:36.922Z,120.00
2022-12-15T01:01:27.956Z,116.47
2022-12-15T01:04:15.263Z,107.65
2022-12-15T01:07:02.011Z,130.15
2022-12-15T01:09:48.933Z,81.10
2022-12-15T01:12:35.759Z,99.93
2022-12-15T01:15:23.475Z,87.90
2022-12-15T01:18:11.561Z,93.25
2022-12-15T01:20:41.538Z,81.18
2022-12-15T01:23:10.843Z,68.68
2022-12-15T01:25:40.661Z,92.85
2022-12-15T01:28:10.049Z,85.00
2022-12-15T01:30:39.959Z,75.50
2022-12-15T01:33:10.685Z,89.30
2022-12-15T01:35:40.506Z,70.45
2022-12-15T01:38:10.699Z,90.60
2022-12-15T01:40:45.246Z,97.88
2022-12-15T01:43:16.954Z,93.93
2022-12-15T01:45:59.003Z,106.65
2022-12-15T01:48:39.676Z,85.63
2022-12-15T01:51:23.518Z,88.47
2022-12-15T01:53:59.266Z,77.35
2022-12-15T01:56:35.531Z,77.95
2022-12-15T01:59:09.479Z,90.25
2022-12-15T02:01:39.493Z,92.38
2022-12-15T02:04:14.879Z,70.15
2022-12-15T02:06:44.449Z,84.20
2022-12-15T02:09:14.349Z,86.55
2022-12-15T02:11:58.808Z,90.38
2022-12-15T02:14:41.078Z,96.30
2022-12-15T02:17:23.590Z,87.40
2022-12-15T02:20:23.427Z,96.88
2022-12-15T02:23:28.741Z,79.57
2022-12-15T02:26:20.359Z,105.10
2022-12-15T02:29:02.315Z,81.22
2022-12-15T02:31:51.344Z,78.03
2022-12-15T02:34:28.137Z,76.10
2022-12-15T02:37:01.877Z,94.07
2022-12-15T02:39:31.511Z,97.55
2022-12-15T02:42:00.830Z,86.25
2022-12-15T02:44:36.637Z,90.75
2022-12-15T02:47:28.457Z,101.13
2022-12-15T02:50:24.184Z,85.68
2022-12-15T02:53:05.060Z,117.80
2022-12-15T02:55:46.698Z,88.78
2022-12-15T02:58:28.798Z,81.17
2022-12-15T03:01:14.532Z,87.47
2022-12-15T03:03:47.838Z,81.07
2022-12-15T03:06:18.176Z,77.63
2022-12-15T03:08:47.513Z,94.18
2022-12-15T03:11:17.271Z,82.95
2022-12-15T03:13:46.592Z,78.43
2022-12-15T03:16:19.558Z,94.50
2022-12-15T03:18:50.336Z,79.90
2022-12-15T03:21:19.859Z,88.20
2022-12-15T03:23:49.144Z,91.47
2022-12-15T03:26:18.805Z,81.40
2022-12-15T03:28:48.101Z,83.07
2022-12-15T03:36:46.504Z,64.28
2022-12-15T03:41:45.054Z,74.65
2022-12-15T03:44:14.624Z,64.97
2022-12-15T03:46:43.942Z,67.30
2022-12-15T03:49:13.537Z,66.53
2022-12-15T03:51:42.911Z,86.57
2022-12-15T03:54:14.991Z,83.60
2022-12-15T03:56:44.498Z,87.00
2022-12-15T03:59:14.037Z,79.78
2022-12-15T04:01:49.140Z,81.75
2022-12-15T04:04:19.065Z,95.38
2022-12-15T04:06:48.468Z,72.43
2022-12-15T04:09:21.259Z,80.30
2022-12-15T04:11:50.499Z,77.75
2022-12-15T04:14:31.987Z,77.32
2022-12-15T04:17:01.711Z,74.57
2022-12-15T04:19:48.612Z,62.83
2022-12-15T04:22:18.239Z,73.53
2022-12-15T04:25:07.004Z,76.65
2022-12-15T04:27:58.411Z,67.63
2022-12-15T04:30:50.190Z,67.00
2022-12-15T04:33:38.081Z,73.10
2022-12-15T04:36:26.937Z,60.20
2022-12-15T04:39:13.459Z,46.08
2022-12-15T04:42:01.875Z,66.13
2022-12-15T04:44:50.106Z,79.88
2022-12-15T04:47:37.610Z,52.55
2022-12-15T04:50:24.787Z,69.03
2022-12-15T04:53:12.020Z,76.88
2022-12-15T04:55:58.850Z,65.63
2022-12-15T04:58:47.278Z,64.03
2022-12-15T05:01:34.208Z,68.95
2022-12-15T05:04:21.485Z,65.70
2022-12-15T05:07:08.216Z,74.88
2022-12-15T05:09:58.407Z,64.13
2022-12-15T05:12:49.640Z,64.15
2022-12-15T05:15:38.133Z,63.63
2022-12-15T05:18:25.221Z,53.95
2022-12-15T05:21:13.667Z,67.78
2022-12-15T05:24:00.558Z,71.35
2022-12-15T05:26:52.313Z,70.35
2022-12-15T05:29:40.064Z,71.65
2022-12-15T05:32:11.800Z,68.43
2022-12-15T05:34:41.070Z,76.10
2022-12-15T05:37:10.609Z,65.13
2022-12-15T05:39:39.844Z,64.63
2022-12-15T05:42:09.381Z,72.97
2022-12-15T05:44:38.788Z,67.07
2022-12-15T05:47:11.905Z,109.50
2022-12-15T05:49:41.304Z,73.25
2022-12-15T05:52:10.893Z,73.40
2022-12-15T05:54:40.177Z,67.60
2022-12-15T05:57:09.810Z,68.90
2022-12-15T05:59:39.086Z,66.90
2022-12-15T06:02:10.202Z,60.33
2022-12-15T06:04:39.546Z,85.00
2022-12-15T06:07:09.177Z,58.55
2022-12-15T06:09:38.468Z,79.60
2022-12-15T06:12:08.402Z,84.22
2022-12-15T06:14:37.853Z,66.25
2022-12-15T06:17:07.493Z,69.75
2022-12-15T06:19:38.125Z,68.72
2022-12-15T06:22:08.159Z,78.35
2022-12-15T06:24:37.596Z,72.75
2022-12-15T06:27:07.111Z,63.15
2022-12-15T06:29:36.341Z,61.30
2022-12-15T06:32:06.132Z,87.72
2022-12-15T06:34:35.539Z,74.72
2022-12-15T06:37:06.571Z,94.50
2022-12-15T06:39:35.901Z,78.13
2022-12-15T06:42:05.884Z,74.60
2022-12-15T06:44:35.141Z,88.15
2022-12-15T06:47:04.770Z,86.35
2022-12-15T06:49:34.026Z,68.32
2022-12-15T06:52:03.592Z,89.38
2022-12-15T06:54:34.209Z,86.82
2022-12-15T06:57:03.832Z,81.53
2022-12-15T06:59:33.272Z,86.50
2022-12-15T07:02:02.977Z,86.13
2022-12-15T07:04:34.541Z,106.63
2022-12-15T07:07:04.505Z,83.03
2022-12-15T07:09:35.439Z,106.85
2022-12-15T07:12:05.141Z,92.57
2022-12-15T07:14:34.459Z,85.20
2022-12-15T07:17:04.025Z,96.50
2022-12-15T07:19:33.300Z,100.82
2022-12-15T07:22:03.092Z,88.68
2022-12-15T07:24:32.423Z,94.82
2022-12-15T07:27:03.349Z,100.90
2022-12-15T07:29:32.660Z,122.60
2022-12-15T07:32:02.554Z,101.57
2022-12-15T07:34:32.032Z,97.20
2022-12-15T07:37:01.872Z,105.95
2022-12-15T07:39:31.148Z,110.22
2022-12-15T07:42:02.238Z,107.13
2022-12-15T07:44:32.015Z,102.78
2022-12-15T07:47:01.653Z,97.20
2022-12-15T07:49:30.889Z,101.07
2022-12-15T07:52:00.526Z,94.97
2022-12-15T07:54:30.047Z,114.53
2022-12-15T07:57:00.128Z,121.78
2022-12-15T07:59:30.856Z,107.78
2022-12-15T08:02:01.113Z,105.32
2022-12-15T08:04:30.691Z,101.60
2022-12-15T08:07:00.559Z,104.22
2022-12-15T08:09:31.660Z,77.20
2022-12-15T08:12:01.528Z,100.90
2022-12-15T08:14:32.465Z,91.15
2022-12-15T08:17:02.233Z,100.60
2022-12-15T08:19:31.948Z,93.30
2022-12-15T08:22:01.579Z,92.03
2022-12-15T08:24:30.970Z,83.07
2022-12-15T08:27:01.046Z,95.05
2022-12-15T08:29:50.798Z,91.25
2022-12-15T08:32:21.244Z,91.00
2022-12-15T08:34:51.007Z,99.07
2022-12-15T08:37:21.009Z,89.13
2022-12-15T08:39:50.621Z,96.68
2022-12-15T08:42:20.336Z,92.85
2022-12-15T08:44:52.383Z,100.28
2022-12-15T08:47:22.012Z,110.93
2022-12-15T08:49:51.691Z,102.78
2022-12-15T08:52:36.190Z,104.53
2022-12-15T08:55:05.809Z,106.20
2022-12-15T08:57:35.560Z,131.95
2022-12-15T09:00:07.079Z,129.15
2022-12-15T09:02:36.877Z,125.22
2022-12-15T09:05:07.015Z,149.60
2022-12-15T09:07:36.867Z,130.40
2022-12-15T09:10:06.822Z,104.38
2022-12-15T09:12:36.405Z,94.65
2022-12-15T09:15:08.246Z,92.65
2022-12-15T09:17:37.877Z,97.38
2022-12-15T09:20:09.126Z,103.38
2022-12-15T09:22:38.748Z,109.60
2022-12-15T09:25:08.766Z,139.40
2022-12-15T09:27:38.352Z,138.15
2022-12-15T09:30:10.728Z,144.07
2022-12-15T09:32:40.453Z,153.48
2022-12-15T09:35:10.290Z,149.68
2022-12-15T09:37:39.931Z,167.93
2022-12-15T09:40:14.046Z,168.60
2022-12-15T09:43:04.834Z,130.57
2022-12-15T09:45:46.750Z,96.75
2022-12-15T09:50:52.746Z,106.97
2022-12-15T09:53:53.472Z,99.55
2022-12-15T09:56:22.635Z,109.80
2022-12-15T09:59:01.495Z,115.47
2022-12-15T10:01:43.971Z,86.28
2022-12-15T10:04:27.328Z,82.50
2022-12-15T10:07:04.299Z,71.22
2022-12-15T10:09:33.891Z,79.40
2022-12-15T10:12:08.469Z,80.72
2022-12-15T10:14:43.400Z,83.07
2022-12-15T10:17:22.605Z,81.53
2022-12-15T10:20:00.985Z,85.85
2022-12-15T10:22:34.429Z,99.78
2022-12-15T10:25:10.747Z,97.07
2022-12-15T10:28:05.708Z,83.15
2022-12-15T10:30:35.791Z,74.32
2022-12-15T10:33:19.273Z,75.55
2022-12-15T10:35:49.743Z,72.78
2022-12-15T10:38:26.674Z,67.80
2022-12-15T10:40:59.649Z,67.53
2022-12-15T10:43:32.627Z,63.72
2022-12-15T10:46:05.491Z,61.03
2022-12-15T10:48:36.403Z,66.22
2022-12-15T10:51:30.017Z,64.70
2022-12-15T10:54:09.566Z,56.05
2022-12-15T10:56:50.341Z,55.63
2022-12-15T10:59:30.204Z,59.92
2022-12-15T11:02:28.578Z,55.15
2022-12-15T11:05:01.097Z,50.70
2022-12-15T11:07:37.262Z,50.05
2022-12-15T11:10:21.507Z,49.75
2022-12-15T11:13:00.724Z,45.28
2022-12-15T11:15:53.342Z,49.80
2022-12-15T11:18:37.330Z,47.65
2022-12-15T11:21:13.391Z,37.83
2022-12-15T11:24:00.317Z,38.85
2022-12-15T11:26:48.904Z,35.13
2022-12-15T11:29:28.097Z,30.50
2022-12-15T11:32:04.753Z,32.50
2022-12-15T11:34:40.412Z,39.97
2022-12-15T11:37:42.443Z,37.25
2022-12-15T11:40:29.631Z,37.53
2022-12-15T11:43:31.532Z,39.97
2022-12-15T11:46:19.626Z,46.45
2022-12-15T11:49:07.855Z,43.15
2022-12-15T11:51:44.177Z,42.13
2022-12-15T11:54:29.859Z,35.55
2022-12-15T11:57:24.529Z,33.17
2022-12-15T12:00:05.051Z,34.38
2022-12-15T12:03:09.841Z,32.97
2022-12-15T12:05:52.692Z,36.92
2022-12-15T12:08:39.406Z,32.08
2022-12-15T12:11:15.225Z,34.50
2022-12-15T12:14:11.673Z,34.65
2022-12-15T12:16:47.381Z,36.58
2022-12-15T12:19:22.329Z,38.38
2022-12-15T12:21:55.272Z,40.72
2022-12-15T12:24:31.223Z,40.83
2022-12-15T12:27:06.659Z,42.28
2022-12-15T12:29:40.614Z,45.53
2022-12-15T12:32:16.759Z,51.95
2022-12-15T12:35:30.367Z,45.47
2022-12-15T12:38:01.372Z,47.80
2022-12-15T12:40:47.602Z,49.60
2022-12-15T12:43:32.107Z,56.60
2022-12-15T12:46:08.557Z,51.65
2022-12-15T12:48:40.895Z,62.05
2022-12-15T12:51:24.215Z,68.95
2022-12-15T12:53:53.757Z,67.10
2022-12-15T12:56:33.518Z,60.13
2022-12-15T12:59:08.831Z,64.53
2022-12-15T13:01:39.284Z,72.85
2022-12-15T13:04:11.979Z,70.82
2022-12-15T13:07:03.431Z,63.63
2022-12-15T13:09:43.926Z,65.88
2022-12-15T13:12:54.455Z,66.90
2022-12-15T13:15:45.392Z,70.65
2022-12-15T13:18:25.665Z,83.47
2022-12-15T13:20:58.988Z,79.95
2022-12-15T13:23:41.342Z,83.25
2022-12-15T13:26:19.958Z,81.75
2022-12-15T13:28:59.231Z,70.50
2022-12-15T13:31:49.700Z,70.30
2022-12-15T13:34:28.706Z,72.28
2022-12-15T13:37:03.875Z,76.60
2022-12-15T13:40:00.159Z,77.25
2022-12-15T13:42:51.217Z,80.13
2022-12-15T13:45:48.924Z,76.60
2022-12-15T13:48:33.989Z,84.88
2022-12-15T13:51:32.928Z,88.07
2022-12-15T13:54:15.571Z,86.32
2022-12-15T13:56:57.014Z,91.95
2022-12-15T13:59:43.112Z,82.32
2022-12-15T14:02:26.842Z,89.10
2022-12-15T14:05:15.118Z,88.53
2022-12-15T14:07:54.351Z,85.90
2022-12-15T14:10:29.501Z,93.10
2022-12-15T14:13:11.526Z,92.47
2022-12-15T14:15:47.569Z,91.38
2022-12-15T14:18:32.632Z,97.05
2022-12-15T14:21:03.281Z,104.00
2022-12-15T14:23:52.516Z,114.97
2022-12-15T14:26:33.295Z,97.20
2022-12-15T14:29:05.234Z,115.60
2022-12-15T14:31:38.161Z,113.95
2022-12-15T14:34:11.978Z,98.05
2022-12-15T14:36:43.513Z,109.53
2022-12-15T14:39:21.771Z,134.13
2022-12-15T14:41:55.344Z,116.72
2022-12-15T14:47:24.780Z,112.53
2022-12-15T14:49:55.010Z,99.95
2022-12-15T14:52:31.672Z,100.38
2022-12-15T14:55:03.338Z,92.28
2022-12-15T14:57:44.766Z,126.25
2022-12-15T15:00:36.295Z,119.72
2022-12-15T15:06:01.550Z,103.88
2022-12-15T15:08:33.641Z,126.57
2022-12-15T15:11:24.447Z,130.05
2022-12-15T15:13:59.443Z,109.93
2022-12-15T15:16:29.753Z,125.88
2022-12-15T15:19:01.953Z,114.88
2022-12-15T15:21:36.540Z,130.27
2022-12-15T15:24:22.655Z,110.32
2022-12-15T15:26:52.545Z,110.32
2022-12-15T15:29:40.319Z,126.72
2022-12-15T15:32:17.427Z,110.53
2022-12-15T15:34:48.090Z,106.80
2022-12-15T15:37:20.960Z,111.13
2022-12-15T15:39:51.734Z,129.27
2022-12-15T15:42:21.302Z,108.80
2022-12-15T15:44:51.920Z,114.13
2022-12-15T15:47:26.827Z,127.72
2022-12-15T15:49:59.411Z,117.53
2022-12-15T15:52:32.416Z,121.18
2022-12-15T15:55:01.958Z,105.45
2022-12-15T15:57:31.463Z,124.38
2022-12-15T16:00:05.515Z,112.75
2022-12-15T16:02:36.410Z,122.10
2022-12-15T16:05:06.417Z,108.38
2022-12-15T16:07:36.224Z,123.82
2022-12-15T16:10:08.190Z,106.82
2022-12-15T16:12:43.291Z,119.68
2022-12-15T16:15:19.916Z,106.00
2022-12-15T16:17:50.664Z,106.15
2022-12-15T16:20:21.568Z,118.50
2022-12-15T16:22:55.922Z,111.50
2022-12-15T16:25:41.246Z,101.70
2022-12-15T16:28:15.435Z,102.68
2022-12-15T16:30:47.086Z,105.40
2022-12-15T16:33:17.235Z,98.10
2022-12-15T16:35:48.263Z,110.88
2022-12-15T16:38:23.955Z,99.40
2022-12-15T16:40:55.238Z,115.72
2022-12-15T16:43:31.453Z,106.35
2022-12-15T16:46:10.133Z,135.85
2022-12-15T16:48:46.019Z,119.30
2022-12-15T16:51:28.184Z,111.63
2022-12-15T16:53:58.103Z,114.55
2022-12-15T16:56:27.401Z,115.28
2022-12-15T16:59:15.693Z,107.50
2022-12-15T17:01:48.441Z,142.18
2022-12-15T17:04:19.340Z,143.85
2022-12-15T17:06:48.853Z,115.45
2022-12-15T17:09:23.616Z,135.77
2022-12-15T17:11:53.243Z,123.82
2022-12-15T17:14:23.049Z,122.53
2022-12-15T17:16:55.810Z,130.43
2022-12-15T17:19:25.458Z,127.55
2022-12-15T17:21:55.749Z,127.03
2022-12-15T17:24:25.339Z,107.75
2022-12-15T17:26:55.008Z,109.22
2022-12-15T17:29:26.419Z,107.30
2022-12-15T17:31:57.052Z,90.85
2022-12-15T17:34:31.304Z,109.43
2022-12-15T17:37:02.940Z,87.72
2022-12-15T17:39:34.768Z,95.00
2022-12-15T17:42:04.673Z,105.80
2022-12-15T17:44:38.163Z,87.50
2022-12-15T17:47:10.116Z,85.50
2022-12-15T17:49:41.579Z,90.75
2022-12-15T17:52:26.228Z,89.30
2022-12-15T17:54:56.883Z,80.75
2022-12-15T17:57:26.176Z,93.35
2022-12-15T17:59:55.891Z,87.45
2022-12-15T18:02:26.613Z,94.38
2022-12-15T18:04:57.565Z,91.28
2022-12-15T18:07:27.599Z,94.55
2022-12-15T18:09:57.117Z,92.75
2022-12-15T18:12:29.136Z,81.35
2022-12-15T18:14:58.785Z,85.70
2022-12-15T18:17:30.683Z,101.65
2022-12-15T18:20:00.463Z,91.70
2022-12-15T18:22:30.557Z,97.40
2022-12-15T18:25:00.137Z,93.53
2022-12-15T18:27:31.527Z,85.25
2022-12-15T18:30:01.059Z,94.70
2022-12-15T18:32:32.544Z,91.75
2022-12-15T18:35:02.564Z,87.22
2022-12-15T18:37:31.977Z,76.45
2022-12-15T18:40:04.990Z,94.15
2022-12-15T18:42:35.117Z,79.53
2022-12-15T18:45:06.020Z,79.85
2022-12-15T18:47:36.959Z,84.75
2022-12-15T18:50:12.292Z,96.55
2022-12-15T18:52:41.638Z,69.60
2022-12-15T18:55:21.673Z,91.47
2022-12-15T18:57:52.925Z,80.25
2022-12-15T19:00:28.292Z,58.28
2022-12-15T19:03:01.242Z,87.97
2022-12-15T19:05:32.870Z,75.82
2022-12-15T19:08:09.990Z,92.78
2022-12-15T19:10:46.545Z,89.20
2022-12-15T19:13:17.357Z,84.65
2022-12-15T19:15:51.525Z,95.45
2022-12-15T19:18:42.760Z,93.38
2022-12-15T19:21:33.572Z,87.35
2022-12-15T19:24:03.390Z,83.30
2022-12-15T19:26:33.037Z,86.32
2022-12-15T19:29:03.266Z,84.07
2022-12-15T19:31:35.421Z,86.85
2022-12-15T19:34:08.210Z,87.78
2022-12-15T19:36:37.984Z,83.60
2022-12-15T19:39:17.972Z,79.50
2022-12-15T19:41:48.674Z,100.70
2022-12-15T19:44:19.168Z,109.55
2022-12-15T19:46:48.907Z,111.40
2022-12-15T19:49:19.720Z,84.82
2022-12-15T19:51:49.917Z,98.60
2022-12-15T19:54:22.093Z,119.40
2022-12-15T19:56:53.079Z,86.00
2022-12-15T19:59:28.944Z,110.45
2022-12-15T20:02:00.346Z,100.43
2022-12-15T20:04:32.228Z,103.43
2022-12-15T20:07:04.321Z,77.22
2022-12-15T20:09:33.822Z,95.93
2022-12-15T20:12:03.428Z,79.55
2022-12-15T20:14:32.767Z,90.20
2022-12-15T20:17:04.560Z,84.15
2022-12-15T20:19:35.615Z,72.93
2022-12-15T20:22:06.862Z,78.32
2022-12-15T20:24:36.471Z,66.13
2022-12-15T20:27:11.897Z,63.45
2022-12-15T20:29:44.006Z,87.07
2022-12-15T20:32:16.886Z,67.78
2022-12-15T20:34:48.797Z,70.05
2022-12-15T20:37:22.063Z,70.75
2022-12-15T20:39:57.220Z,84.60
2022-12-15T20:44:56.364Z,84.68
2022-12-15T20:47:27.845Z,81.97
2022-12-15T20:49:58.491Z,77.97
2022-12-15T20:52:29.797Z,73.50
2022-12-15T20:54:59.305Z,63.67
2022-12-15T20:57:28.936Z,75.55
2022-12-15T20:59:59.432Z,85.22
2022-12-15T21:02:30.880Z,80.47
2022-12-15T21:05:03.478Z,68.38
2022-12-15T21:07:33.071Z,62.70
2022-12-15T21:10:02.282Z,65.43
2022-12-15T21:12:31.950Z,59.85
2022-12-15T21:15:01.528Z,59.75
2022-12-15T21:17:31.622Z,63.40
2022-12-15T21:20:02.328Z,58.47
2022-12-15T21:22:32.145Z,66.15
2022-12-15T21:25:01.967Z,70.40
2022-12-15T21:27:31.672Z,75.90
2022-12-15T21:30:00.959Z,72.47
2022-12-15T21:32:30.573Z,74.35
2022-12-15T21:35:01.411Z,75.18
2022-12-15T21:37:31.942Z,69.30
2022-12-15T21:40:01.874Z,71.03
2022-12-15T21:42:31.901Z,67.63
2022-12-15T21:45:01.324Z,64.82
2022-12-15T21:47:52.993Z,88.85
2022-12-15T21:50:24.859Z,73.13
2022-12-15T21:52:54.796Z,59.10
2022-12-15T21:55:26.962Z,97.15
2022-12-15T21:57:57.356Z,82.70
2022-12-15T22:00:27.583Z,81.35
2022-12-15T22:02:57.225Z,94.32
2022-12-15T22:05:30.427Z,92.20
2022-12-15T22:08:01.767Z,62.70
2022-12-15T22:10:30.992Z,71.95
2022-12-15T22:13:00.742Z,89.18
2022-12-15T22:15:31.000Z,70.70
2022-12-15T22:18:00.645Z,89.18
2022-12-15T22:20:31.460Z,84.80
2022-12-15T22:23:01.108Z,81.75
2022-12-15T22:25:30.545Z,83.45
2022-12-15T22:28:00.164Z,82.88
2022-12-15T22:30:29.962Z,80.35
2022-12-15T22:32:59.532Z,80.03
2022-12-15T22:35:30.287Z,73.47
2022-12-15T22:37:59.740Z,82.88
2022-12-15T22:40:30.309Z,80.35
2022-12-15T22:43:00.460Z,82.90
2022-12-15T22:45:29.935Z,68.43
2022-12-15T22:47:59.736Z,72.38
2022-12-15T22:50:30.525Z,66.80
2022-12-15T22:53:00.706Z,67.43
2022-12-15T22:55:29.993Z,69.25
2022-12-15T22:58:03.082Z,85.85
2022-12-15T23:00:32.439Z,85.88
2022-12-15T23:03:02.515Z,75.90
2022-12-15T23:05:33.367Z,65.00
2022-12-15T23:08:02.912Z,71.30
2022-12-15T23:10:49.459Z,67.22
2022-12-15T23:13:20.092Z,70.95
2022-12-15T23:16:07.708Z,57.70
2022-12-15T23:18:38.058Z,75.45
2022-12-15T23:21:09.556Z,58.67
2022-12-15T23:23:39.183Z,78.00
2022-12-15T23:26:08.560Z,64.80
2022-12-15T23:28:38.741Z,78.18
2022-12-15T23:31:08.294Z,53.53
2022-12-15T23:33:39.075Z,60.75
2022-12-15T23:36:12.239Z,76.32
2022-12-15T23:38:42.031Z,79.85
2022-12-15T23:41:17.840Z,66.75
2022-12-15T23:43:47.926Z,66.57
2022-12-15T23:46:18.595Z,61.92
2022-12-15T23:48:48.359Z,70.90
2022-12-15T23:51:21.252Z,60.53
2022-12-15T23:53:50.892Z,74.07
2022-12-15T23:56:23.489Z,68.20
2022-12-15T23:58:57.346Z,82.25
